sensor_id;sensor_type;location;lat;lon;timestamp;P1;durP1;ratioP1;P2;durP2;ratioP2
37288;SDS011;23174;49.462;11.000;2023-04-24T00:01:47;1.25;;;1.10;;
37288;SDS011;23174;49.462;11.000;2023-04-24T00:03:48;1.98;;;1.10;;
37288;SDS011;23174;49.462;11.000;2023-04-24T00:05:49;2.67;;;1.80;;
37288;SDS011;23174;49.462;11.000;2023-04-24T00:07:50;2.90;;;1.30;;
37288;SDS011;23174;49.462;11.000;2023-04-24T00:09:55;2.97;;;1.08;;
37288;SDS011;23174;49.462;11.000;2023-04-24T00:11:56;1.48;;;1.20;;
37288;SDS011;23174;49.462;11.000;2023-04-24T00:13:56;1.58;;;1.13;;
37288;SDS011;23174;49.462;11.000;2023-04-24T00:15:57;3.78;;;0.95;;
37288;SDS011;23174;49.462;11.000;2023-04-24T00:17:58;2.08;;;1.13;;
37288;SDS011;23174;49.462;11.000;2023-04-24T00:19:58;1.15;;;0.82;;
37288;SDS011;23174;49.462;11.000;2023-04-24T00:21:59;2.13;;;1.38;;
37288;SDS011;23174;49.462;11.000;2023-04-24T00:23:59;1.10;;;1.00;;
37288;SDS011;23174;49.462;11.000;2023-04-24T00:26:00;1.38;;;0.98;;
37288;SDS011;23174;49.462;11.000;2023-04-24T00:28:00;1.20;;;1.10;;
37288;SDS011;23174;49.462;11.000;2023-04-24T00:30:01;4.25;;;1.00;;
37288;SDS011;23174;49.462;11.000;2023-04-24T00:32:02;1.50;;;1.02;;
37288;SDS011;23174;49.462;11.000;2023-04-24T00:34:02;1.30;;;0.85;;
37288;SDS011;23174;49.462;11.000;2023-04-24T00:36:03;1.45;;;0.80;;
37288;SDS011;23174;49.462;11.000;2023-04-24T00:38:04;2.47;;;1.00;;
37288;SDS011;23174;49.462;11.000;2023-04-24T00:40:05;4.10;;;0.90;;
37288;SDS011;23174;49.462;11.000;2023-04-24T00:42:06;0.65;;;0.57;;
37288;SDS011;23174;49.462;11.000;2023-04-24T00:44:07;0.55;;;0.55;;
37288;SDS011;23174;49.462;11.000;2023-04-24T00:46:08;0.82;;;0.82;;
37288;SDS011;23174;49.462;11.000;2023-04-24T00:48:08;1.60;;;1.10;;
37288;SDS011;23174;49.462;11.000;2023-04-24T00:50:09;0.80;;;0.80;;
37288;SDS011;23174;49.462;11.000;2023-04-24T00:52:11;0.82;;;0.80;;
37288;SDS011;23174;49.462;11.000;2023-04-24T00:54:12;0.80;;;0.80;;
37288;SDS011;23174;49.462;11.000;2023-04-24T00:56:13;1.20;;;0.90;;
37288;SDS011;23174;49.462;11.000;2023-04-24T00:58:14;1.10;;;1.00;;
37288;SDS011;23174;49.462;11.000;2023-04-24T01:00:15;2.28;;;0.88;;
37288;SDS011;23174;49.462;11.000;2023-04-24T01:02:16;1.10;;;1.00;;
37288;SDS011;23174;49.462;11.000;2023-04-24T01:04:17;0.70;;;0.65;;
37288;SDS011;23174;49.462;11.000;2023-04-24T01:06:18;1.13;;;0.77;;
37288;SDS011;23174;49.462;11.000;2023-04-24T01:08:19;0.75;;;0.75;;
37288;SDS011;23174;49.462;11.000;2023-04-24T01:10:23;1.65;;;0.80;;
37288;SDS011;23174;49.462;11.000;2023-04-24T01:12:25;1.48;;;0.75;;
37288;SDS011;23174;49.462;11.000;2023-04-24T01:14:26;1.58;;;1.08;;
37288;SDS011;23174;49.462;11.000;2023-04-24T01:16:26;1.27;;;0.70;;
37288;SDS011;23174;49.462;11.000;2023-04-24T01:18:27;0.77;;;0.77;;
37288;SDS011;23174;49.462;11.000;2023-04-24T01:20:28;1.33;;;0.57;;
37288;SDS011;23174;49.462;11.000;2023-04-24T01:22:30;0.80;;;0.80;;
37288;SDS011;23174;49.462;11.000;2023-04-24T01:24:30;0.55;;;0.55;;
37288;SDS011;23174;49.462;11.000;2023-04-24T01:26:31;0.70;;;0.70;;
37288;SDS011;23174;49.462;11.000;2023-04-24T01:28:32;1.23;;;0.77;;
37288;SDS011;23174;49.462;11.000;2023-04-24T01:30:32;0.93;;;0.60;;
37288;SDS011;23174;49.462;11.000;2023-04-24T01:32:33;1.48;;;0.77;;
37288;SDS011;23174;49.462;11.000;2023-04-24T01:34:34;3.05;;;0.70;;
37288;SDS011;23174;49.462;11.000;2023-04-24T01:36:35;1.13;;;0.75;;
37288;SDS011;23174;49.462;11.000;2023-04-24T01:38:36;0.77;;;0.60;;
37288;SDS011;23174;49.462;11.000;2023-04-24T01:40:36;0.90;;;0.80;;
37288;SDS011;23174;49.462;11.000;2023-04-24T01:42:37;0.75;;;0.70;;
37288;SDS011;23174;49.462;11.000;2023-04-24T01:44:38;1.35;;;0.82;;
37288;SDS011;23174;49.462;11.000;2023-04-24T01:46:39;1.05;;;0.60;;
37288;SDS011;23174;49.462;11.000;2023-04-24T01:48:39;1.27;;;0.80;;
37288;SDS011;23174;49.462;11.000;2023-04-24T01:50:41;0.68;;;0.60;;
37288;SDS011;23174;49.462;11.000;2023-04-24T01:52:41;1.45;;;0.50;;
37288;SDS011;23174;49.462;11.000;2023-04-24T01:54:42;1.38;;;0.60;;
37288;SDS011;23174;49.462;11.000;2023-04-24T01:56:42;1.27;;;0.70;;
37288;SDS011;23174;49.462;11.000;2023-04-24T01:58:43;2.38;;;0.50;;
37288;SDS011;23174;49.462;11.000;2023-04-24T02:00:44;0.47;;;0.43;;
37288;SDS011;23174;49.462;11.000;2023-04-24T02:02:45;0.93;;;0.50;;
37288;SDS011;23174;49.462;11.000;2023-04-24T02:04:45;0.73;;;0.50;;
37288;SDS011;23174;49.462;11.000;2023-04-24T02:06:46;3.67;;;0.60;;
37288;SDS011;23174;49.462;11.000;2023-04-24T02:08:46;0.90;;;0.45;;
37288;SDS011;23174;49.462;11.000;2023-04-24T02:10:47;0.57;;;0.52;;
37288;SDS011;23174;49.462;11.000;2023-04-24T02:12:47;0.70;;;0.68;;
37288;SDS011;23174;49.462;11.000;2023-04-24T02:14:48;0.55;;;0.50;;
37288;SDS011;23174;49.462;11.000;2023-04-24T02:16:48;0.52;;;0.50;;
37288;SDS011;23174;49.462;11.000;2023-04-24T02:18:49;2.72;;;0.68;;
37288;SDS011;23174;49.462;11.000;2023-04-24T02:20:49;0.70;;;0.70;;
37288;SDS011;23174;49.462;11.000;2023-04-24T02:22:50;1.35;;;0.80;;
37288;SDS011;23174;49.462;11.000;2023-04-24T02:24:50;1.05;;;0.70;;
37288;SDS011;23174;49.462;11.000;2023-04-24T02:26:51;0.45;;;0.45;;
37288;SDS011;23174;49.462;11.000;2023-04-24T02:28:51;1.25;;;0.90;;
37288;SDS011;23174;49.462;11.000;2023-04-24T02:30:52;1.90;;;0.40;;
37288;SDS011;23174;49.462;11.000;2023-04-24T02:32:52;0.70;;;0.70;;
37288;SDS011;23174;49.462;11.000;2023-04-24T02:34:53;0.75;;;0.52;;
37288;SDS011;23174;49.462;11.000;2023-04-24T02:36:54;1.95;;;0.52;;
37288;SDS011;23174;49.462;11.000;2023-04-24T02:38:54;1.75;;;0.70;;
37288;SDS011;23174;49.462;11.000;2023-04-24T02:40:55;0.65;;;0.55;;
37288;SDS011;23174;49.462;11.000;2023-04-24T02:42:55;1.15;;;0.60;;
37288;SDS011;23174;49.462;11.000;2023-04-24T02:44:56;0.90;;;0.50;;
37288;SDS011;23174;49.462;11.000;2023-04-24T02:46:56;0.82;;;0.50;;
37288;SDS011;23174;49.462;11.000;2023-04-24T02:48:57;0.68;;;0.60;;
37288;SDS011;23174;49.462;11.000;2023-04-24T02:50:57;1.85;;;1.00;;
37288;SDS011;23174;49.462;11.000;2023-04-24T02:52:58;0.80;;;0.60;;
37288;SDS011;23174;49.462;11.000;2023-04-24T02:54:58;1.38;;;0.47;;
37288;SDS011;23174;49.462;11.000;2023-04-24T02:56:59;1.95;;;0.57;;
37288;SDS011;23174;49.462;11.000;2023-04-24T02:59:01;0.68;;;0.60;;
37288;SDS011;23174;49.462;11.000;2023-04-24T03:01:01;0.80;;;0.43;;
37288;SDS011;23174;49.462;11.000;2023-04-24T03:03:02;0.65;;;0.65;;
37288;SDS011;23174;49.462;11.000;2023-04-24T03:05:02;1.35;;;0.60;;
37288;SDS011;23174;49.462;11.000;2023-04-24T03:07:04;2.28;;;0.75;;
37288;SDS011;23174;49.462;11.000;2023-04-24T03:09:05;0.52;;;0.52;;
37288;SDS011;23174;49.462;11.000;2023-04-24T03:11:06;0.73;;;0.65;;
37288;SDS011;23174;49.462;11.000;2023-04-24T03:13:06;5.15;;;0.80;;
37288;SDS011;23174;49.462;11.000;2023-04-24T03:15:07;0.40;;;0.40;;
37288;SDS011;23174;49.462;11.000;2023-04-24T03:17:08;2.58;;;0.60;;
37288;SDS011;23174;49.462;11.000;2023-04-24T03:19:08;0.70;;;0.70;;
37288;SDS011;23174;49.462;11.000;2023-04-24T03:21:09;0.82;;;0.65;;
37288;SDS011;23174;49.462;11.000;2023-04-24T03:23:09;0.98;;;0.52;;
37288;SDS011;23174;49.462;11.000;2023-04-24T03:25:10;0.60;;;0.60;;
37288;SDS011;23174;49.462;11.000;2023-04-24T03:27:10;1.02;;;0.57;;
37288;SDS011;23174;49.462;11.000;2023-04-24T03:29:11;1.05;;;0.60;;
37288;SDS011;23174;49.462;11.000;2023-04-24T03:31:11;0.70;;;0.60;;
37288;SDS011;23174;49.462;11.000;2023-04-24T03:33:12;0.90;;;0.60;;
37288;SDS011;23174;49.462;11.000;2023-04-24T03:35:12;2.67;;;0.52;;
37288;SDS011;23174;49.462;11.000;2023-04-24T03:37:13;1.27;;;0.77;;
37288;SDS011;23174;49.462;11.000;2023-04-24T03:39:13;0.65;;;0.63;;
37288;SDS011;23174;49.462;11.000;2023-04-24T03:41:14;0.70;;;0.70;;
37288;SDS011;23174;49.462;11.000;2023-04-24T03:43:14;0.40;;;0.40;;
37288;SDS011;23174;49.462;11.000;2023-04-24T03:45:15;1.05;;;0.90;;
37288;SDS011;23174;49.462;11.000;2023-04-24T03:47:15;2.10;;;1.52;;
37288;SDS011;23174;49.462;11.000;2023-04-24T03:49:16;1.02;;;0.98;;
37288;SDS011;23174;49.462;11.000;2023-04-24T03:51:16;1.92;;;0.70;;
37288;SDS011;23174;49.462;11.000;2023-04-24T03:53:17;4.10;;;1.27;;
37288;SDS011;23174;49.462;11.000;2023-04-24T03:55:17;2.00;;;1.40;;
37288;SDS011;23174;49.462;11.000;2023-04-24T03:57:18;0.85;;;0.85;;
37288;SDS011;23174;49.462;11.000;2023-04-24T03:59:18;4.90;;;0.95;;
37288;SDS011;23174;49.462;11.000;2023-04-24T04:01:19;0.60;;;0.60;;
37288;SDS011;23174;49.462;11.000;2023-04-24T04:03:20;0.73;;;0.55;;
37288;SDS011;23174;49.462;11.000;2023-04-24T04:05:21;1.63;;;0.80;;
37288;SDS011;23174;49.462;11.000;2023-04-24T04:07:21;0.57;;;0.57;;
37288;SDS011;23174;49.462;11.000;2023-04-24T04:09:22;1.40;;;0.60;;
37288;SDS011;23174;49.462;11.000;2023-04-24T04:11:22;0.70;;;0.70;;
37288;SDS011;23174;49.462;11.000;2023-04-24T04:13:23;1.55;;;0.95;;
37288;SDS011;23174;49.462;11.000;2023-04-24T04:15:23;0.93;;;0.85;;
37288;SDS011;23174;49.462;11.000;2023-04-24T04:17:24;0.75;;;0.75;;
37288;SDS011;23174;49.462;11.000;2023-04-24T04:19:24;1.02;;;0.88;;
37288;SDS011;23174;49.462;11.000;2023-04-24T04:21:25;1.25;;;0.73;;
37288;SDS011;23174;49.462;11.000;2023-04-24T04:23:26;4.15;;;1.02;;
37288;SDS011;23174;49.462;11.000;2023-04-24T04:25:28;1.60;;;0.90;;
37288;SDS011;23174;49.462;11.000;2023-04-24T04:27:29;1.08;;;0.90;;
37288;SDS011;23174;49.462;11.000;2023-04-24T04:29:32;1.75;;;1.00;;
37288;SDS011;23174;49.462;11.000;2023-04-24T04:31:32;3.13;;;0.90;;
37288;SDS011;23174;49.462;11.000;2023-04-24T04:33:33;1.42;;;0.80;;
37288;SDS011;23174;49.462;11.000;2023-04-24T04:35:33;1.65;;;0.70;;
37288;SDS011;23174;49.462;11.000;2023-04-24T04:37:34;1.52;;;0.70;;
37288;SDS011;23174;49.462;11.000;2023-04-24T04:39:35;0.98;;;0.80;;
37288;SDS011;23174;49.462;11.000;2023-04-24T04:41:36;2.45;;;1.15;;
37288;SDS011;23174;49.462;11.000;2023-04-24T04:43:37;1.17;;;1.08;;
37288;SDS011;23174;49.462;11.000;2023-04-24T04:45:40;1.17;;;0.80;;
37288;SDS011;23174;49.462;11.000;2023-04-24T04:47:42;2.90;;;0.98;;
37288;SDS011;23174;49.462;11.000;2023-04-24T04:49:44;1.02;;;1.02;;
37288;SDS011;23174;49.462;11.000;2023-04-24T04:51:44;1.83;;;1.73;;
37288;SDS011;23174;49.462;11.000;2023-04-24T04:53:45;1.20;;;1.10;;
37288;SDS011;23174;49.462;11.000;2023-04-24T04:55:46;1.52;;;1.33;;
37288;SDS011;23174;49.462;11.000;2023-04-24T04:57:47;1.38;;;1.27;;
37288;SDS011;23174;49.462;11.000;2023-04-24T04:59:47;2.20;;;1.42;;
37288;SDS011;23174;49.462;11.000;2023-04-24T05:01:48;1.08;;;1.00;;
37288;SDS011;23174;49.462;11.000;2023-04-24T05:03:48;1.55;;;1.45;;
37288;SDS011;23174;49.462;11.000;2023-04-24T05:05:49;2.20;;;1.83;;
37288;SDS011;23174;49.462;11.000;2023-04-24T05:07:49;1.63;;;1.50;;
37288;SDS011;23174;49.462;11.000;2023-04-24T05:09:50;1.08;;;1.08;;
37288;SDS011;23174;49.462;11.000;2023-04-24T05:11:52;1.30;;;1.20;;
37288;SDS011;23174;49.462;11.000;2023-04-24T05:13:53;1.00;;;0.90;;
37288;SDS011;23174;49.462;11.000;2023-04-24T05:15:53;1.55;;;1.20;;
37288;SDS011;23174;49.462;11.000;2023-04-24T05:17:54;1.63;;;1.50;;
37288;SDS011;23174;49.462;11.000;2023-04-24T05:19:54;1.77;;;1.50;;
37288;SDS011;23174;49.462;11.000;2023-04-24T05:21:55;1.35;;;1.25;;
37288;SDS011;23174;49.462;11.000;2023-04-24T05:23:56;1.58;;;1.48;;
37288;SDS011;23174;49.462;11.000;2023-04-24T05:25:56;0.95;;;0.95;;
37288;SDS011;23174;49.462;11.000;2023-04-24T05:27:57;2.90;;;1.02;;
37288;SDS011;23174;49.462;11.000;2023-04-24T05:29:57;1.10;;;1.00;;
37288;SDS011;23174;49.462;11.000;2023-04-24T05:31:58;1.15;;;1.13;;
37288;SDS011;23174;49.462;11.000;2023-04-24T05:34:00;1.23;;;0.95;;
37288;SDS011;23174;49.462;11.000;2023-04-24T05:36:00;3.55;;;1.15;;
37288;SDS011;23174;49.462;11.000;2023-04-24T05:38:01;0.95;;;0.95;;
37288;SDS011;23174;49.462;11.000;2023-04-24T05:40:01;1.42;;;1.05;;
37288;SDS011;23174;49.462;11.000;2023-04-24T05:42:04;1.08;;;1.08;;
37288;SDS011;23174;49.462;11.000;2023-04-24T05:44:05;1.42;;;1.20;;
37288;SDS011;23174;49.462;11.000;2023-04-24T05:46:05;1.55;;;1.10;;
37288;SDS011;23174;49.462;11.000;2023-04-24T05:48:06;1.25;;;1.10;;
37288;SDS011;23174;49.462;11.000;2023-04-24T05:50:06;2.45;;;1.20;;
37288;SDS011;23174;49.462;11.000;2023-04-24T05:52:07;1.05;;;1.00;;
37288;SDS011;23174;49.462;11.000;2023-04-24T05:54:08;1.58;;;1.10;;
37288;SDS011;23174;49.462;11.000;2023-04-24T05:56:10;1.45;;;1.23;;
37288;SDS011;23174;49.462;11.000;2023-04-24T05:58:11;1.25;;;1.02;;
37288;SDS011;23174;49.462;11.000;2023-04-24T06:00:12;2.35;;;1.40;;
37288;SDS011;23174;49.462;11.000;2023-04-24T06:02:13;6.10;;;1.90;;
37288;SDS011;23174;49.462;11.000;2023-04-24T06:04:13;4.07;;;3.05;;
37288;SDS011;23174;49.462;11.000;2023-04-24T06:06:14;3.13;;;2.00;;
37288;SDS011;23174;49.462;11.000;2023-04-24T06:08:15;1.90;;;1.20;;
37288;SDS011;23174;49.462;11.000;2023-04-24T06:10:16;7.50;;;1.40;;
37288;SDS011;23174;49.462;11.000;2023-04-24T06:12:16;1.17;;;0.90;;
37288;SDS011;23174;49.462;11.000;2023-04-24T06:14:17;2.78;;;1.15;;
37288;SDS011;23174;49.462;11.000;2023-04-24T06:16:17;2.83;;;1.10;;
37288;SDS011;23174;49.462;11.000;2023-04-24T06:18:18;4.82;;;1.10;;
37288;SDS011;23174;49.462;11.000;2023-04-24T06:20:19;1.42;;;1.30;;
37288;SDS011;23174;49.462;11.000;2023-04-24T06:22:19;1.30;;;1.20;;
37288;SDS011;23174;49.462;11.000;2023-04-24T06:24:20;3.60;;;1.20;;
37288;SDS011;23174;49.462;11.000;2023-04-24T06:26:20;4.22;;;0.80;;
37288;SDS011;23174;49.462;11.000;2023-04-24T06:28:22;1.63;;;1.17;;
37288;SDS011;23174;49.462;11.000;2023-04-24T06:30:22;1.98;;;1.33;;
37288;SDS011;23174;49.462;11.000;2023-04-24T06:32:23;1.55;;;1.08;;
37288;SDS011;23174;49.462;11.000;2023-04-24T06:34:24;3.17;;;1.08;;
37288;SDS011;23174;49.462;11.000;2023-04-24T06:36:25;1.05;;;0.70;;
37288;SDS011;23174;49.462;11.000;2023-04-24T06:38:26;1.17;;;0.73;;
37288;SDS011;23174;49.462;11.000;2023-04-24T06:40:27;1.05;;;0.95;;
37288;SDS011;23174;49.462;11.000;2023-04-24T06:42:27;1.90;;;0.90;;
37288;SDS011;23174;49.462;11.000;2023-04-24T06:44:28;1.33;;;1.10;;
37288;SDS011;23174;49.462;11.000;2023-04-24T06:46:28;1.90;;;0.80;;
37288;SDS011;23174;49.462;11.000;2023-04-24T06:48:29;1.73;;;0.60;;
37288;SDS011;23174;49.462;11.000;2023-04-24T06:50:30;2.67;;;0.57;;
37288;SDS011;23174;49.462;11.000;2023-04-24T06:52:31;3.28;;;0.80;;
37288;SDS011;23174;49.462;11.000;2023-04-24T06:54:35;1.95;;;0.60;;
37288;SDS011;23174;49.462;11.000;2023-04-24T06:56:35;0.68;;;0.65;;
37288;SDS011;23174;49.462;11.000;2023-04-24T06:58:36;1.35;;;0.80;;
37288;SDS011;23174;49.462;11.000;2023-04-24T07:00:36;1.98;;;0.75;;
37288;SDS011;23174;49.462;11.000;2023-04-24T07:02:37;1.95;;;0.93;;
37288;SDS011;23174;49.462;11.000;2023-04-24T07:04:38;1.80;;;0.50;;
37288;SDS011;23174;49.462;11.000;2023-04-24T07:06:38;5.28;;;1.08;;
37288;SDS011;23174;49.462;11.000;2023-04-24T07:08:39;2.03;;;1.50;;
37288;SDS011;23174;49.462;11.000;2023-04-24T07:10:41;3.00;;;0.82;;
37288;SDS011;23174;49.462;11.000;2023-04-24T07:12:42;2.05;;;0.70;;
37288;SDS011;23174;49.462;11.000;2023-04-24T07:14:42;0.38;;;0.10;;
37288;SDS011;23174;49.462;11.000;2023-04-24T07:16:43;0.10;;;0.10;;
37288;SDS011;23174;49.462;11.000;2023-04-24T07:18:45;0.10;;;0.00;;
37288;SDS011;23174;49.462;11.000;2023-04-24T07:20:45;0.10;;;0.10;;
37288;SDS011;23174;49.462;11.000;2023-04-24T07:22:46;0.00;;;0.00;;
37288;SDS011;23174;49.462;11.000;2023-04-24T07:24:48;0.10;;;0.10;;
37288;SDS011;23174;49.462;11.000;2023-04-24T07:26:48;0.20;;;0.20;;
37288;SDS011;23174;49.462;11.000;2023-04-24T07:28:51;0.05;;;0.05;;
37288;SDS011;23174;49.462;11.000;2023-04-24T07:30:52;0.10;;;0.10;;
37288;SDS011;23174;49.462;11.000;2023-04-24T07:32:53;0.00;;;0.00;;
37288;SDS011;23174;49.462;11.000;2023-04-24T07:34:55;0.00;;;0.00;;
37288;SDS011;23174;49.462;11.000;2023-04-24T07:36:55;0.10;;;0.10;;
37288;SDS011;23174;49.462;11.000;2023-04-24T07:38:56;0.20;;;0.15;;
37288;SDS011;23174;49.462;11.000;2023-04-24T07:40:56;0.17;;;0.17;;
37288;SDS011;23174;49.462;11.000;2023-04-24T07:42:57;0.13;;;0.10;;
37288;SDS011;23174;49.462;11.000;2023-04-24T07:44:57;0.30;;;0.20;;
37288;SDS011;23174;49.462;11.000;2023-04-24T07:46:59;0.00;;;0.00;;
37288;SDS011;23174;49.462;11.000;2023-04-24T07:49:00;0.28;;;0.28;;
37288;SDS011;23174;49.462;11.000;2023-04-24T07:51:01;0.05;;;0.05;;
37288;SDS011;23174;49.462;11.000;2023-04-24T07:53:01;0.10;;;0.10;;
37288;SDS011;23174;49.462;11.000;2023-04-24T07:55:02;0.40;;;0.38;;
37288;SDS011;23174;49.462;11.000;2023-04-24T07:57:03;0.00;;;0.00;;
37288;SDS011;23174;49.462;11.000;2023-04-24T07:59:04;0.03;;;0.03;;
37288;SDS011;23174;49.462;11.000;2023-04-24T08:01:05;0.00;;;0.00;;
37288;SDS011;23174;49.462;11.000;2023-04-24T08:03:06;0.20;;;0.20;;
37288;SDS011;23174;49.462;11.000;2023-04-24T08:05:07;0.38;;;0.38;;
37288;SDS011;23174;49.462;11.000;2023-04-24T08:07:07;0.75;;;0.38;;
37288;SDS011;23174;49.462;11.000;2023-04-24T08:09:08;0.28;;;0.28;;
37288;SDS011;23174;49.462;11.000;2023-04-24T08:11:08;0.10;;;0.10;;
37288;SDS011;23174;49.462;11.000;2023-04-24T08:13:09;0.52;;;0.52;;
37288;SDS011;23174;49.462;11.000;2023-04-24T08:15:11;0.28;;;0.20;;
37288;SDS011;23174;49.462;11.000;2023-04-24T08:17:11;0.10;;;0.10;;
37288;SDS011;23174;49.462;11.000;2023-04-24T08:19:12;0.10;;;0.10;;
37288;SDS011;23174;49.462;11.000;2023-04-24T08:21:12;0.13;;;0.10;;
37288;SDS011;23174;49.462;11.000;2023-04-24T08:23:17;0.03;;;0.03;;
37288;SDS011;23174;49.462;11.000;2023-04-24T08:25:17;0.10;;;0.10;;
37288;SDS011;23174;49.462;11.000;2023-04-24T08:27:19;0.32;;;0.32;;
37288;SDS011;23174;49.462;11.000;2023-04-24T08:29:19;0.13;;;0.13;;
37288;SDS011;23174;49.462;11.000;2023-04-24T08:31:21;0.00;;;0.00;;
37288;SDS011;23174;49.462;11.000;2023-04-24T08:33:22;0.28;;;0.28;;
37288;SDS011;23174;49.462;11.000;2023-04-24T08:35:23;0.40;;;0.40;;
37288;SDS011;23174;49.462;11.000;2023-04-24T08:37:25;0.05;;;0.05;;
37288;SDS011;23174;49.462;11.000;2023-04-24T08:39:26;0.28;;;0.10;;
37288;SDS011;23174;49.462;11.000;2023-04-24T08:41:27;0.22;;;0.20;;
37288;SDS011;23174;49.462;11.000;2023-04-24T08:43:28;0.10;;;0.10;;
37288;SDS011;23174;49.462;11.000;2023-04-24T08:45:28;0.17;;;0.17;;
37288;SDS011;23174;49.462;11.000;2023-04-24T08:47:29;0.82;;;0.82;;
37288;SDS011;23174;49.462;11.000;2023-04-24T08:49:31;0.22;;;0.22;;
37288;SDS011;23174;49.462;11.000;2023-04-24T08:51:32;0.28;;;0.28;;
37288;SDS011;23174;49.462;11.000;2023-04-24T08:53:33;0.35;;;0.17;;
37288;SDS011;23174;49.462;11.000;2023-04-24T08:55:34;0.00;;;0.00;;
37288;SDS011;23174;49.462;11.000;2023-04-24T08:57:36;0.10;;;0.10;;
37288;SDS011;23174;49.462;11.000;2023-04-24T08:59:38;0.22;;;0.10;;
37288;SDS011;23174;49.462;11.000;2023-04-24T09:01:40;0.10;;;0.10;;
37288;SDS011;23174;49.462;11.000;2023-04-24T09:03:41;0.38;;;0.38;;
37288;SDS011;23174;49.462;11.000;2023-04-24T09:05:42;0.25;;;0.20;;
37288;SDS011;23174;49.462;11.000;2023-04-24T09:07:47;0.20;;;0.20;;
37288;SDS011;23174;49.462;11.000;2023-04-24T09:09:51;0.30;;;0.30;;
37288;SDS011;23174;49.462;11.000;2023-04-24T09:11:52;0.20;;;0.20;;
37288;SDS011;23174;49.462;11.000;2023-04-24T09:13:57;0.05;;;0.05;;
37288;SDS011;23174;49.462;11.000;2023-04-24T09:15:58;0.35;;;0.35;;
37288;SDS011;23174;49.462;11.000;2023-04-24T09:18:00;0.38;;;0.20;;
37288;SDS011;23174;49.462;11.000;2023-04-24T09:20:01;0.15;;;0.10;;
37288;SDS011;23174;49.462;11.000;2023-04-24T09:22:05;0.00;;;0.00;;
37288;SDS011;23174;49.462;11.000;2023-04-24T09:24:07;0.17;;;0.10;;
37288;SDS011;23174;49.462;11.000;2023-04-24T09:26:17;0.30;;;0.30;;
37288;SDS011;23174;49.462;11.000;2023-04-24T09:28:22;0.00;;;0.00;;
37288;SDS011;23174;49.462;11.000;2023-04-24T09:30:26;0.17;;;0.17;;
37288;SDS011;23174;49.462;11.000;2023-04-24T09:32:26;0.10;;;0.10;;
37288;SDS011;23174;49.462;11.000;2023-04-24T09:34:28;0.20;;;0.20;;
37288;SDS011;23174;49.462;11.000;2023-04-24T09:36:30;0.10;;;0.10;;
37288;SDS011;23174;49.462;11.000;2023-04-24T09:38:37;0.50;;;0.50;;
37288;SDS011;23174;49.462;11.000;2023-04-24T09:40:38;0.10;;;0.10;;
37288;SDS011;23174;49.462;11.000;2023-04-24T09:42:42;0.00;;;0.00;;
37288;SDS011;23174;49.462;11.000;2023-04-24T09:44:44;0.30;;;0.30;;
37288;SDS011;23174;49.462;11.000;2023-04-24T09:48:57;0.25;;;0.25;;
37288;SDS011;23174;49.462;11.000;2023-04-24T09:50:57;0.28;;;0.28;;
37288;SDS011;23174;49.462;11.000;2023-04-24T09:52:59;1.95;;;1.70;;
37288;SDS011;23174;49.462;11.000;2023-04-24T09:55:02;2.13;;;1.08;;
37288;SDS011;23174;49.462;11.000;2023-04-24T09:57:10;2.17;;;0.80;;
37288;SDS011;23174;49.462;11.000;2023-04-24T09:59:11;0.82;;;0.82;;
37288;SDS011;23174;49.462;11.000;2023-04-24T10:01:12;1.73;;;0.70;;
37288;SDS011;23174;49.462;11.000;2023-04-24T10:03:13;1.52;;;0.85;;
37288;SDS011;23174;49.462;11.000;2023-04-24T10:05:13;0.93;;;0.73;;
37288;SDS011;23174;49.462;11.000;2023-04-24T10:07:15;1.42;;;1.08;;
37288;SDS011;23174;49.462;11.000;2023-04-24T10:09:16;0.60;;;0.60;;
37288;SDS011;23174;49.462;11.000;2023-04-24T10:11:17;0.60;;;0.60;;
37288;SDS011;23174;49.462;11.000;2023-04-24T10:13:18;1.58;;;0.80;;
37288;SDS011;23174;49.462;11.000;2023-04-24T10:15:19;0.82;;;0.50;;
37288;SDS011;23174;49.462;11.000;2023-04-24T10:17:21;1.23;;;0.70;;
37288;SDS011;23174;49.462;11.000;2023-04-24T10:19:24;0.75;;;0.70;;
37288;SDS011;23174;49.462;11.000;2023-04-24T10:21:26;0.50;;;0.50;;
37288;SDS011;23174;49.462;11.000;2023-04-24T10:23:26;1.45;;;0.75;;
37288;SDS011;23174;49.462;11.000;2023-04-24T10:25:29;0.75;;;0.70;;
37288;SDS011;23174;49.462;11.000;2023-04-24T10:27:31;0.88;;;0.55;;
37288;SDS011;23174;49.462;11.000;2023-04-24T10:29:32;2.83;;;1.48;;
37288;SDS011;23174;49.462;11.000;2023-04-24T10:31:36;1.15;;;0.63;;
37288;SDS011;23174;49.462;11.000;2023-04-24T10:33:37;0.45;;;0.30;;
37288;SDS011;23174;49.462;11.000;2023-04-24T10:35:42;0.90;;;0.63;;
37288;SDS011;23174;49.462;11.000;2023-04-24T10:37:46;1.88;;;0.70;;
37288;SDS011;23174;49.462;11.000;2023-04-24T10:39:50;0.90;;;0.43;;
37288;SDS011;23174;49.462;11.000;2023-04-24T10:41:54;1.50;;;0.77;;
37288;SDS011;23174;49.462;11.000;2023-04-24T10:44:10;0.43;;;0.30;;
37288;SDS011;23174;49.462;11.000;2023-04-24T10:46:16;1.65;;;0.50;;
37288;SDS011;23174;49.462;11.000;2023-04-24T10:48:19;0.98;;;0.70;;
37288;SDS011;23174;49.462;11.000;2023-04-24T10:50:27;0.40;;;0.40;;
37288;SDS011;23174;49.462;11.000;2023-04-24T10:52:43;0.70;;;0.40;;
37288;SDS011;23174;49.462;11.000;2023-04-24T10:54:45;0.57;;;0.50;;
37288;SDS011;23174;49.462;11.000;2023-04-24T10:56:46;0.47;;;0.47;;
37288;SDS011;23174;49.462;11.000;2023-04-24T10:58:49;0.57;;;0.50;;
37288;SDS011;23174;49.462;11.000;2023-04-24T11:00:55;0.50;;;0.50;;
37288;SDS011;23174;49.462;11.000;2023-04-24T11:02:57;0.90;;;0.70;;
37288;SDS011;23174;49.462;11.000;2023-04-24T11:04:58;0.47;;;0.47;;
37288;SDS011;23174;49.462;11.000;2023-04-24T11:07:03;0.52;;;0.50;;
37288;SDS011;23174;49.462;11.000;2023-04-24T11:09:05;0.85;;;0.60;;
37288;SDS011;23174;49.462;11.000;2023-04-24T11:11:14;0.70;;;0.70;;
37288;SDS011;23174;49.462;11.000;2023-04-24T11:13:17;1.85;;;0.60;;
37288;SDS011;23174;49.462;11.000;2023-04-24T11:15:22;0.90;;;0.85;;
37288;SDS011;23174;49.462;11.000;2023-04-24T11:17:35;1.17;;;1.10;;
37288;SDS011;23174;49.462;11.000;2023-04-24T11:19:38;0.30;;;0.30;;
37288;SDS011;23174;49.462;11.000;2023-04-24T11:21:46;0.68;;;0.40;;
37288;SDS011;23174;49.462;11.000;2023-04-24T11:23:48;0.10;;;0.10;;
37288;SDS011;23174;49.462;11.000;2023-04-24T11:26:07;0.30;;;0.30;;
37288;SDS011;23174;49.462;11.000;2023-04-24T11:28:10;0.38;;;0.38;;
37288;SDS011;23174;49.462;11.000;2023-04-24T11:30:22;0.43;;;0.43;;
37288;SDS011;23174;49.462;11.000;2023-04-24T11:34:29;0.10;;;0.10;;
37288;SDS011;23174;49.462;11.000;2023-04-24T11:36:31;0.22;;;0.20;;
37288;SDS011;23174;49.462;11.000;2023-04-24T11:38:31;0.13;;;0.13;;
37288;SDS011;23174;49.462;11.000;2023-04-24T11:40:32;0.10;;;0.10;;
37288;SDS011;23174;49.462;11.000;2023-04-24T11:42:33;0.20;;;0.20;;
37288;SDS011;23174;49.462;11.000;2023-04-24T11:44:37;0.32;;;0.13;;
37288;SDS011;23174;49.462;11.000;2023-04-24T11:46:39;0.05;;;0.05;;
37288;SDS011;23174;49.462;11.000;2023-04-24T11:48:44;0.20;;;0.20;;
37288;SDS011;23174;49.462;11.000;2023-04-24T11:50:46;0.00;;;0.00;;
37288;SDS011;23174;49.462;11.000;2023-04-24T11:52:47;0.30;;;0.30;;
37288;SDS011;23174;49.462;11.000;2023-04-24T11:54:49;0.00;;;0.00;;
37288;SDS011;23174;49.462;11.000;2023-04-24T11:56:50;0.10;;;0.10;;
37288;SDS011;23174;49.462;11.000;2023-04-24T11:58:53;0.10;;;0.10;;
37288;SDS011;23174;49.462;11.000;2023-04-24T12:00:57;0.32;;;0.15;;
37288;SDS011;23174;49.462;11.000;2023-04-24T12:03:07;0.10;;;0.10;;
37288;SDS011;23174;49.462;11.000;2023-04-24T12:07:25;0.35;;;0.35;;